Time;durP1;ratioP1;P1;durP2;ratioP2;P2;SDS_P1;SDS_P2;PMS_P1;PMS_P2;Temp;Humidity;BMP_temperature;BMP_pressure;BME280_temperature;BME280_humidity;BME280_pressure;Samples;Min_cycle;Max_cycle;Signal;HPM_P1;HPM_P2
2023/09/08 00:02:08;;;;;;;8.52;6.95;;;18.60;99.90;;;;;;5080850;28;20036;-80
2023/09/08 00:04:34;;;;;;;7.78;7.07;;;18.60;99.90;;;;;;5073037;28;20127;-81
2023/09/08 00:07:00;;;;;;;8.45;7.00;;;18.60;99.90;;;;;;5068867;28;20053;-81
2023/09/08 00:09:26;;;;;;;8.25;7.45;;;18.50;99.90;;;;;;5077804;28;20506;-81
2023/09/08 00:11:54;;;;;;;8.20;7.50;;;18.50;99.90;;;;;;5076642;28;20047;-81
2023/09/08 00:14:19;;;;;;;8.43;7.15;;;18.50;99.90;;;;;;5084043;28;20479;-81
2023/09/08 00:16:45;;;;;;;8.32;7.53;;;18.40;99.90;;;;;;5070385;28;20127;-81
2023/09/08 00:19:11;;;;;;;10.25;7.35;;;18.40;99.90;;;;;;5084040;28;20131;-80
2023/09/08 00:21:37;;;;;;;9.85;7.45;;;18.30;99.90;;;;;;5070790;28;20044;-81
2023/09/08 00:24:03;;;;;;;7.82;7.13;;;18.20;99.90;;;;;;5079387;28;20194;-80
2023/09/08 00:26:29;;;;;;;7.72;7.03;;;18.20;99.90;;;;;;5089745;28;20047;-81
2023/09/08 00:28:55;;;;;;;11.82;7.25;;;18.10;99.90;;;;;;5085341;28;20090;-80
2023/09/08 00:31:20;;;;;;;8.13;7.28;;;18.10;99.90;;;;;;5069998;28;20047;-79
2023/09/08 00:33:46;;;;;;;8.40;7.60;;;18.20;99.90;;;;;;5075325;28;20457;-81
2023/09/08 00:36:11;;;;;;;8.30;7.53;;;18.00;99.90;;;;;;5071267;28;20071;-80
2023/09/08 00:38:37;;;;;;;8.35;7.55;;;18.00;99.90;;;;;;5070352;28;20044;-80
2023/09/08 00:41:04;;;;;;;8.73;7.88;;;17.90;99.90;;;;;;5076854;28;20047;-81
2023/09/08 00:43:30;;;;;;;8.60;7.80;;;17.90;99.90;;;;;;5072000;28;20060;-80
2023/09/08 00:45:58;;;;;;;9.43;7.40;;;17.80;99.90;;;;;;5078616;28;20044;-81
2023/09/08 00:48:24;;;;;;;8.73;7.80;;;17.80;99.90;;;;;;5076896;28;20040;-81
2023/09/08 00:50:50;;;;;;;8.60;7.75;;;17.70;99.90;;;;;;5073679;28;20072;-80
2023/09/08 00:53:15;;;;;;;8.60;7.80;;;17.70;99.90;;;;;;5068737;28;20044;-80
2023/09/08 00:55:41;;;;;;;8.85;7.97;;;17.70;99.90;;;;;;5069956;28;20169;-81
2023/09/08 00:58:07;;;;;;;8.13;7.32;;;17.60;99.90;;;;;;5069215;28;20049;-81
2023/09/08 01:00:33;;;;;;;8.00;7.30;;;17.60;99.90;;;;;;5075407;28;20105;-81
2023/09/08 01:02:59;;;;;;;8.13;7.40;;;17.50;99.90;;;;;;5069527;28;20503;-81
2023/09/08 01:05:25;;;;;;;8.68;7.68;;;17.50;99.90;;;;;;5068536;28;20048;-81
2023/09/08 01:07:52;;;;;;;10.18;7.70;;;17.40;99.90;;;;;;5084078;28;20063;-81
2023/09/08 01:10:17;;;;;;;8.80;7.90;;;17.40;99.90;;;;;;5087799;28;20040;-80
2023/09/08 01:12:43;;;;;;;9.13;8.23;;;17.40;99.90;;;;;;5072093;28;20044;-80
2023/09/08 01:15:09;;;;;;;8.40;7.60;;;17.40;99.90;;;;;;5080137;28;20525;-81
2023/09/08 01:17:35;;;;;;;8.45;7.75;;;17.30;99.90;;;;;;5088433;28;20136;-81
2023/09/08 01:20:17;;;;;;;10.38;8.15;;;17.30;99.90;;;;;;5083255;28;20068;-81
2023/09/08 01:23:08;;;;;;;11.05;8.43;;;17.30;99.90;;;;;;5069430;28;20052;-81
2023/09/08 01:25:38;;;;;;;8.38;7.57;;;17.20;99.90;;;;;;5069534;28;20555;-81
2023/09/08 01:28:05;;;;;;;9.05;8.25;;;17.20;99.90;;;;;;5072866;28;20453;-81
2023/09/08 01:30:32;;;;;;;8.98;8.07;;;17.20;99.90;;;;;;5089277;28;20056;-81
2023/09/08 01:32:59;;;;;;;9.15;8.25;;;17.20;99.90;;;;;;5071027;28;20147;-81
2023/09/08 01:35:25;;;;;;;9.07;8.27;;;17.20;99.90;;;;;;5071181;28;20399;-81
2023/09/08 01:37:50;;;;;;;10.13;8.48;;;17.20;99.90;;;;;;5069656;28;20631;-81
2023/09/08 01:40:18;;;;;;;9.52;8.52;;;17.20;99.90;;;;;;5083002;28;20101;-81
2023/09/08 01:42:45;;;;;;;10.20;9.15;;;17.20;99.90;;;;;;5067800;28;20033;-81
2023/09/08 01:45:11;;;;;;;10.70;9.65;;;17.20;99.90;;;;;;5069085;28;20059;-81
2023/09/08 01:47:38;;;;;;;9.13;8.32;;;17.20;99.90;;;;;;5068207;28;20033;-81
2023/09/08 01:50:04;;;;;;;10.60;9.10;;;17.20;99.90;;;;;;5076353;28;20521;-81
2023/09/08 01:52:29;;;;;;;9.95;8.93;;;17.20;99.90;;;;;;5087346;28;20044;-81
2023/09/08 01:54:55;;;;;;;9.85;8.85;;;17.20;99.90;;;;;;5087726;28;20051;-80
2023/09/08 01:57:21;;;;;;;10.13;9.13;;;17.30;99.90;;;;;;5088828;28;20044;-80
2023/09/08 01:59:47;;;;;;;10.82;8.70;;;17.30;99.90;;;;;;5075323;28;20036;-81
2023/09/08 02:02:13;;;;;;;9.88;8.70;;;17.30;99.90;;;;;;5050456;28;20119;-81
2023/09/08 02:04:39;;;;;;;11.52;8.75;;;17.30;99.90;;;;;;5067804;28;20059;-80
2023/09/08 02:07:04;;;;;;;9.15;8.35;;;17.30;99.90;;;;;;5066789;28;20045;-81
2023/09/08 02:09:35;;;;;;;9.90;8.90;;;17.20;99.90;;;;;;5080700;28;20032;-81
2023/09/08 02:12:02;;;;;;;9.75;8.82;;;17.20;99.90;;;;;;5088403;28;20101;-80
2023/09/08 02:14:28;;;;;;;10.55;9.00;;;17.20;99.90;;;;;;5071449;28;20052;-80
2023/09/08 02:16:54;;;;;;;11.88;9.52;;;17.10;99.90;;;;;;5085862;28;20040;-81
2023/09/08 02:19:20;;;;;;;9.77;8.88;;;17.10;99.90;;;;;;5070154;28;20123;-81
2023/09/08 02:21:46;;;;;;;9.65;8.75;;;17.10;99.90;;;;;;5068023;28;20590;-81
2023/09/08 02:24:11;;;;;;;10.45;9.23;;;17.10;99.90;;;;;;5070765;28;20033;-81
2023/09/08 02:26:38;;;;;;;9.85;8.93;;;17.00;99.90;;;;;;5066969;28;20040;-81
2023/09/08 02:29:04;;;;;;;9.50;8.60;;;17.00;99.90;;;;;;5056706;28;20051;-80
2023/09/08 02:31:30;;;;;;;10.05;8.98;;;17.00;99.90;;;;;;5075519;28;20047;-81
2023/09/08 02:33:55;;;;;;;10.32;8.82;;;16.90;99.90;;;;;;5077251;28;20048;-81
2023/09/08 02:36:27;;;;;;;9.38;8.57;;;16.90;99.90;;;;;;5072564;28;20467;-81
2023/09/08 02:38:56;;;;;;;10.10;9.13;;;16.90;99.90;;;;;;5078085;28;20084;-81
2023/09/08 02:41:22;;;;;;;10.35;9.35;;;16.90;99.90;;;;;;5066232;28;20510;-80
2023/09/08 02:43:49;;;;;;;9.63;8.73;;;16.90;99.90;;;;;;5067983;28;20052;-81
2023/09/08 02:46:15;;;;;;;9.73;8.80;;;16.90;99.90;;;;;;5072222;28;20036;-80
2023/09/08 02:48:41;;;;;;;9.68;8.77;;;16.80;99.90;;;;;;5081127;28;20106;-80
2023/09/08 02:51:06;;;;;;;10.13;9.07;;;16.80;99.90;;;;;;5081164;28;20087;-81
2023/09/08 02:53:32;;;;;;;10.18;9.18;;;16.80;99.90;;;;;;5085097;28;20053;-80
2023/09/08 02:55:58;;;;;;;11.23;9.93;;;16.70;99.90;;;;;;5066314;28;20115;-80
2023/09/08 02:58:25;;;;;;;10.13;9.23;;;16.70;99.90;;;;;;5081200;28;20052;-81
2023/09/08 03:00:52;;;;;;;13.52;9.70;;;16.70;99.90;;;;;;5081454;28;20033;-81
2023/09/08 03:03:20;;;;;;;10.05;9.15;;;16.70;99.90;;;;;;5067111;28;20438;-80
2023/09/08 03:05:46;;;;;;;10.30;9.30;;;16.60;99.90;;;;;;5065671;28;20036;-80
2023/09/08 03:08:12;;;;;;;10.30;9.27;;;16.70;99.90;;;;;;5072267;28;20383;-81
2023/09/08 03:10:37;;;;;;;11.50;9.43;;;16.60;99.90;;;;;;5069163;28;20080;-81
2023/09/08 03:13:04;;;;;;;10.43;9.38;;;16.60;99.90;;;;;;5069913;28;20038;-81
2023/09/08 03:15:30;;;;;;;11.27;10.20;;;16.60;99.90;;;;;;5085387;28;20109;-81
2023/09/08 03:17:56;;;;;;;10.68;9.68;;;16.60;99.90;;;;;;5068579;28;20044;-81
2023/09/08 03:20:22;;;;;;;11.82;9.38;;;16.60;99.90;;;;;;5062108;28;20045;-81
2023/09/08 03:22:48;;;;;;;11.00;9.90;;;16.60;99.90;;;;;;5066133;28;20098;-80
2023/09/08 03:25:14;;;;;;;10.63;9.63;;;16.50;99.90;;;;;;5076074;28;20067;-81
2023/09/08 03:27:40;;;;;;;11.30;9.65;;;16.50;99.90;;;;;;5070783;28;20078;-81
2023/09/08 03:30:06;;;;;;;10.18;9.18;;;16.50;99.90;;;;;;5075790;28;20047;-81
2023/09/08 03:32:32;;;;;;;11.23;10.20;;;16.40;99.90;;;;;;5066503;28;20028;-81
2023/09/08 03:34:57;;;;;;;11.30;10.10;;;16.40;99.90;;;;;;5066658;28;20102;-81
2023/09/08 03:37:23;;;;;;;11.70;10.50;;;16.40;99.90;;;;;;5067381;28;20195;-81
2023/09/08 03:39:49;;;;;;;10.95;9.88;;;16.40;99.90;;;;;;5085056;28;20047;-80
2023/09/08 03:42:14;;;;;;;10.88;9.85;;;16.40;99.90;;;;;;5091601;28;20044;-81
2023/09/08 03:44:40;;;;;;;10.18;9.27;;;16.30;99.90;;;;;;5072763;28;20055;-81
2023/09/08 03:47:06;;;;;;;11.20;10.20;;;16.30;99.90;;;;;;5082666;28;20040;-80
2023/09/08 03:49:33;;;;;;;13.45;10.57;;;16.20;99.90;;;;;;5087326;28;20089;-82
2023/09/08 03:51:58;;;;;;;9.93;9.10;;;16.20;99.90;;;;;;5086901;28;20485;-81
2023/09/08 03:54:24;;;;;;;10.90;9.70;;;16.20;99.90;;;;;;5076307;28;20064;-81
2023/09/08 03:56:49;;;;;;;11.27;9.93;;;16.20;99.90;;;;;;5071479;28;20121;-81
2023/09/08 03:59:15;;;;;;;10.38;9.35;;;16.20;99.90;;;;;;5070121;28;20044;-80
2023/09/08 04:01:40;;;;;;;12.15;10.63;;;16.10;99.90;;;;;;5086662;28;20067;-81
2023/09/08 04:04:06;;;;;;;11.40;10.20;;;16.10;99.90;;;;;;5086663;28;20052;-81
2023/09/08 04:06:31;;;;;;;10.48;9.48;;;16.10;99.90;;;;;;5068490;28;20049;-80
2023/09/08 04:08:57;;;;;;;10.90;9.80;;;16.10;99.90;;;;;;5090412;28;20044;-80
2023/09/08 04:11:22;;;;;;;11.18;10.07;;;16.00;99.90;;;;;;5089771;28;20865;-80
2023/09/08 04:13:48;;;;;;;10.75;9.65;;;16.00;99.90;;;;;;5073931;28;20413;-81
2023/09/08 04:16:14;;;;;;;12.23;11.02;;;16.00;99.90;;;;;;5069830;28;20135;-80
2023/09/08 04:18:39;;;;;;;12.02;10.70;;;15.90;99.90;;;;;;5069325;28;20079;-81
2023/09/08 04:21:07;;;;;;;11.20;9.93;;;15.90;99.90;;;;;;5069690;28;20052;-80
2023/09/08 04:23:32;;;;;;;12.15;10.85;;;15.90;99.90;;;;;;5076135;28;20052;-81
2023/09/08 04:25:59;;;;;;;13.13;10.30;;;15.90;99.90;;;;;;5087750;28;20133;-80
2023/09/08 04:28:25;;;;;;;12.20;11.00;;;15.90;99.90;;;;;;5085970;28;20458;-81
2023/09/08 04:30:50;;;;;;;12.30;11.00;;;15.80;99.90;;;;;;5073888;28;20040;-80
2023/09/08 04:33:16;;;;;;;12.32;10.98;;;15.80;99.90;;;;;;5079164;28;20048;-80
2023/09/08 04:35:41;;;;;;;13.52;11.00;;;15.80;99.90;;;;;;5078987;28;20131;-80
2023/09/08 04:38:07;;;;;;;12.40;11.30;;;15.80;99.90;;;;;;5077486;28;20106;-80
2023/09/08 04:40:33;;;;;;;12.65;11.40;;;15.90;99.90;;;;;;5070558;28;20048;-80
2023/09/08 04:42:59;;;;;;;12.95;11.68;;;15.90;99.90;;;;;;5072166;28;20055;-81
2023/09/08 04:45:25;;;;;;;12.45;11.20;;;15.90;99.90;;;;;;5082643;28;20052;-81
2023/09/08 04:47:50;;;;;;;12.80;11.43;;;15.90;99.90;;;;;;5069645;28;20040;-81
2023/09/08 04:50:16;;;;;;;13.30;11.63;;;15.90;99.90;;;;;;5080468;28;20060;-81
2023/09/08 04:52:41;;;;;;;12.40;11.20;;;15.90;99.90;;;;;;5077055;28;20053;-81
2023/09/08 04:55:07;;;;;;;13.52;11.05;;;15.90;99.90;;;;;;5069362;28;20399;-80
2023/09/08 04:57:33;;;;;;;12.00;10.90;;;15.90;99.90;;;;;;5084963;28;20079;-80
2023/09/08 04:59:58;;;;;;;12.48;11.32;;;15.90;99.90;;;;;;5070265;28;20068;-81
2023/09/08 05:02:24;;;;;;;12.75;11.45;;;15.90;99.90;;;;;;5070137;28;20040;-81
2023/09/08 05:04:49;;;;;;;13.55;11.90;;;16.00;99.90;;;;;;5078158;28;20044;-81
2023/09/08 05:07:15;;;;;;;13.70;12.40;;;15.90;99.90;;;;;;5079059;28;20536;-81
2023/09/08 05:09:41;;;;;;;13.32;11.70;;;16.00;99.90;;;;;;5069740;28;20044;-80
2023/09/08 05:12:06;;;;;;;13.13;11.82;;;16.00;99.90;;;;;;5079622;28;20102;-80
2023/09/08 05:14:32;;;;;;;11.20;9.93;;;16.00;99.90;;;;;;5071005;28;20060;-80
2023/09/08 05:16:58;;;;;;;12.82;10.73;;;16.10;99.90;;;;;;5081307;28;20043;-79
2023/09/08 05:19:23;;;;;;;12.48;11.15;;;16.10;99.90;;;;;;5084773;28;20044;-79
2023/09/08 05:21:51;;;;;;;11.48;10.50;;;16.10;99.90;;;;;;5085487;28;20399;-79
2023/09/08 05:24:17;;;;;;;12.95;10.70;;;16.20;99.90;;;;;;5084231;28;20036;-79
2023/09/08 05:26:43;;;;;;;11.45;10.15;;;16.20;99.90;;;;;;5079617;28;20119;-79
2023/09/08 05:29:08;;;;;;;12.23;10.98;;;16.20;99.90;;;;;;5089308;28;20047;-79
2023/09/08 05:31:34;;;;;;;12.30;11.05;;;16.20;99.90;;;;;;5090746;28;20071;-80
2023/09/08 05:33:59;;;;;;;11.57;10.48;;;16.30;99.90;;;;;;5088385;28;20040;-80
2023/09/08 05:36:25;;;;;;;12.30;11.10;;;16.30;99.90;;;;;;5089372;28;20048;-80
2023/09/08 05:38:50;;;;;;;22.17;11.65;;;16.30;99.90;;;;;;5079456;28;20149;-81
2023/09/08 05:41:16;;;;;;;11.70;10.50;;;16.40;99.90;;;;;;5088634;28;20082;-81
2023/09/08 05:43:42;;;;;;;14.07;11.85;;;16.40;99.90;;;;;;5081193;28;20518;-80
2023/09/08 05:46:07;;;;;;;11.85;10.55;;;16.50;99.90;;;;;;5068675;28;20080;-81
2023/09/08 05:48:33;;;;;;;13.38;12.02;;;16.50;99.90;;;;;;5081260;28;20105;-80
2023/09/08 05:50:59;;;;;;;12.10;10.88;;;16.50;99.90;;;;;;5078260;28;20052;-80
2023/09/08 05:53:25;;;;;;;11.80;10.65;;;16.60;99.90;;;;;;5070941;28;20056;-80
2023/09/08 05:55:50;;;;;;;11.75;10.65;;;16.60;99.90;;;;;;5083639;28;20116;-81
2023/09/08 05:58:16;;;;;;;11.85;10.65;;;16.70;99.90;;;;;;5067762;28;20048;-80
2023/09/08 06:00:42;;;;;;;12.02;10.82;;;16.70;99.90;;;;;;5084412;28;20040;-80
2023/09/08 06:03:07;;;;;;;11.38;10.27;;;16.70;99.90;;;;;;5079739;28;20043;-81
2023/09/08 06:05:33;;;;;;;12.27;11.07;;;16.80;99.90;;;;;;5070120;28;20097;-80
2023/09/08 06:07:58;;;;;;;12.32;10.93;;;16.90;99.90;;;;;;5076076;28;20032;-81
2023/09/08 06:10:24;;;;;;;11.85;10.65;;;17.00;99.90;;;;;;5068369;28;20054;-81
2023/09/08 06:12:50;;;;;;;14.02;11.25;;;17.10;99.90;;;;;;5066312;28;20641;-81
2023/09/08 06:15:17;;;;;;;11.65;10.52;;;17.10;99.90;;;;;;5067948;28;20502;-80
2023/09/08 06:17:42;;;;;;;11.63;10.52;;;17.20;99.90;;;;;;5079740;28;20041;-81
2023/09/08 06:20:08;;;;;;;11.55;10.50;;;17.40;99.90;;;;;;5067190;28;20044;-82
2023/09/08 06:22:34;;;;;;;11.77;10.43;;;17.50;99.90;;;;;;5066742;28;20041;-81
2023/09/08 06:24:59;;;;;;;11.68;10.40;;;17.60;99.90;;;;;;5080570;28;20101;-80
2023/09/08 06:27:25;;;;;;;12.15;10.85;;;17.70;99.90;;;;;;5067870;28;20037;-81
2023/09/08 06:29:51;;;;;;;14.63;10.32;;;17.80;99.90;;;;;;5067667;28;20059;-81
2023/09/08 06:32:16;;;;;;;11.68;10.15;;;17.90;99.90;;;;;;5066860;28;20037;-81
2023/09/08 06:34:43;;;;;;;11.10;9.77;;;18.00;99.90;;;;;;5066944;28;20105;-81
2023/09/08 06:37:08;;;;;;;13.40;9.98;;;18.10;99.90;;;;;;5068469;28;20052;-81
2023/09/08 06:39:34;;;;;;;12.15;10.45;;;18.30;99.90;;;;;;5081643;28;20066;-81
2023/09/08 06:41:59;;;;;;;10.77;9.77;;;18.40;99.90;;;;;;5084616;28;20060;-81
2023/09/08 06:44:25;;;;;;;14.38;10.35;;;18.50;99.90;;;;;;5088046;28;20112;-81
2023/09/08 06:46:51;;;;;;;12.05;10.63;;;18.60;99.90;;;;;;5072204;28;20051;-81
2023/09/08 06:49:17;;;;;;;10.85;9.73;;;18.70;99.90;;;;;;5066518;28;20048;-81
2023/09/08 06:51:43;;;;;;;10.88;9.77;;;18.90;99.90;;;;;;5067098;28;20095;-82
2023/09/08 06:54:08;;;;;;;10.57;9.57;;;18.90;99.90;;;;;;5079537;28;20058;-82
2023/09/08 06:56:36;;;;;;;14.13;9.90;;;19.10;99.90;;;;;;5088138;28;20048;-82
2023/09/08 06:59:01;;;;;;;11.32;10.13;;;19.20;99.90;;;;;;5075713;28;20040;-82
2023/09/08 07:01:28;;;;;;;11.13;10.02;;;19.30;99.90;;;;;;5069529;28;20066;-82
2023/09/08 07:03:53;;;;;;;11.32;10.10;;;19.40;99.90;;;;;;5072813;28;20445;-82
2023/09/08 07:06:22;;;;;;;10.63;9.60;;;19.50;99.90;;;;;;5083113;28;20040;-82
2023/09/08 07:08:50;;;;;;;10.75;9.48;;;19.70;99.90;;;;;;5087156;28;20044;-82
2023/09/08 07:11:16;;;;;;;12.35;9.77;;;19.80;99.90;;;;;;5068072;28;20079;-82
2023/09/08 07:13:41;;;;;;;10.68;8.88;;;19.90;99.90;;;;;;5068864;28;20688;-82
2023/09/08 07:16:07;;;;;;;9.20;8.23;;;20.00;99.90;;;;;;5069899;28;20123;-81
2023/09/08 07:18:35;;;;;;;9.68;8.77;;;20.20;99.90;;;;;;5070549;28;20052;-81
2023/09/08 07:21:01;;;;;;;10.98;9.90;;;20.30;99.90;;;;;;5071570;28;20045;-80
2023/09/08 07:23:27;;;;;;;9.70;8.55;;;20.30;99.90;;;;;;5070490;28;20041;-81
2023/09/08 07:25:53;;;;;;;9.93;8.70;;;20.50;99.90;;;;;;5071800;28;20055;-80
2023/09/08 07:28:18;;;;;;;11.32;8.25;;;20.60;99.90;;;;;;5070323;28;20051;-82
2023/09/08 07:30:44;;;;;;;9.48;8.38;;;20.70;99.90;;;;;;5086077;28;20040;-82
2023/09/08 07:33:09;;;;;;;12.25;9.00;;;20.90;99.90;;;;;;5084026;28;20475;-82
2023/09/08 07:35:39;;;;;;;8.90;8.10;;;20.90;99.90;;;;;;5079371;28;20044;-82
2023/09/08 07:38:06;;;;;;;8.77;7.97;;;20.90;99.90;;;;;;5091065;28;20051;-81
2023/09/08 07:40:33;;;;;;;9.20;8.30;;;21.10;99.90;;;;;;5091690;28;20040;-81
2023/09/08 07:42:58;;;;;;;10.48;8.70;;;21.20;99.90;;;;;;5072275;28;20094;-82
2023/09/08 07:45:24;;;;;;;8.50;7.80;;;21.30;99.90;;;;;;5081181;28;20048;-82
2023/09/08 07:47:49;;;;;;;8.57;7.65;;;21.30;99.90;;;;;;5057834;28;20044;-82
2023/09/08 07:50:18;;;;;;;8.20;7.47;;;21.50;99.90;;;;;;5081766;28;20795;-81
2023/09/08 07:52:44;;;;;;;8.45;7.70;;;21.60;99.90;;;;;;5073549;28;20040;-82
2023/09/08 07:55:10;;;;;;;8.10;7.40;;;21.80;99.90;;;;;;5075474;28;20059;-82
2023/09/08 07:57:35;;;;;;;8.98;8.15;;;21.90;99.90;;;;;;5082260;28;20040;-81
2023/09/08 08:00:01;;;;;;;11.50;8.15;;;22.00;99.90;;;;;;5069540;28;20044;-81
2023/09/08 08:02:27;;;;;;;12.45;7.88;;;22.10;99.90;;;;;;5071424;28;20039;-81
2023/09/08 08:04:53;;;;;;;8.23;7.32;;;22.20;99.90;;;;;;5083532;28;20098;-82
2023/09/08 08:07:18;;;;;;;8.90;8.02;;;22.30;99.90;;;;;;5080941;28;20083;-81
2023/09/08 08:09:44;;;;;;;8.05;7.35;;;22.50;99.90;;;;;;5090845;28;20806;-81
2023/09/08 08:12:09;;;;;;;8.13;7.32;;;22.60;99.90;;;;;;5090642;28;20048;-81
2023/09/08 08:14:35;;;;;;;8.60;6.88;;;22.70;99.90;;;;;;5086386;28;20036;-81
2023/09/08 08:17:00;;;;;;;7.90;7.10;;;22.80;99.90;;;;;;5070828;28;20102;-81
2023/09/08 08:19:27;;;;;;;7.90;7.07;;;23.00;99.90;;;;;;5068309;28;20055;-81
2023/09/08 08:21:53;;;;;;;8.20;7.05;;;23.10;99.90;;;;;;5069006;28;20040;-82
2023/09/08 08:24:19;;;;;;;8.60;6.82;;;23.30;99.90;;;;;;5083489;28;20044;-81
2023/09/08 08:26:45;;;;;;;8.35;7.55;;;23.40;99.90;;;;;;5089111;28;20048;-81
2023/09/08 08:29:10;;;;;;;7.68;6.85;;;23.40;99.90;;;;;;5087046;28;20456;-81
2023/09/08 08:31:36;;;;;;;7.68;6.65;;;23.50;99.90;;;;;;5085048;28;20053;-81
2023/09/08 08:34:01;;;;;;;14.05;7.57;;;23.70;99.90;;;;;;5067014;28;20044;-82
2023/09/08 08:36:27;;;;;;;7.85;6.78;;;23.80;99.90;;;;;;5069483;28;20048;-81
2023/09/08 08:38:52;;;;;;;7.97;7.13;;;23.90;99.90;;;;;;5068982;28;21146;-82
2023/09/08 08:41:18;;;;;;;7.50;6.80;;;24.00;99.90;;;;;;5070799;28;20445;-82
2023/09/08 08:43:45;;;;;;;7.95;6.40;;;24.10;99.90;;;;;;5070368;28;20452;-82
2023/09/08 08:46:12;;;;;;;8.00;6.45;;;24.20;99.90;;;;;;5070088;28;20067;-82
2023/09/08 08:48:40;;;;;;;7.00;6.30;;;24.30;99.90;;;;;;5070554;28;20532;-81
2023/09/08 08:51:07;;;;;;;9.23;6.65;;;24.40;99.90;;;;;;5068017;28;20060;-82
2023/09/08 08:53:34;;;;;;;7.18;6.38;;;24.50;99.90;;;;;;5070228;28;20127;-82
2023/09/08 08:56:00;;;;;;;6.72;6.13;;;24.60;99.90;;;;;;5068865;28;20356;-82
2023/09/08 08:58:28;;;;;;;7.15;6.47;;;24.70;99.90;;;;;;5079145;28;20051;-82
2023/09/08 09:00:56;;;;;;;7.13;6.45;;;24.90;99.90;;;;;;5089731;28;20036;-82
2023/09/08 09:03:25;;;;;;;7.32;6.65;;;25.00;99.90;;;;;;5089557;28;20071;-82
2023/09/08 09:05:51;;;;;;;9.52;6.82;;;25.10;99.90;;;;;;5085396;28;20123;-81
2023/09/08 09:08:18;;;;;;;6.47;5.88;;;25.20;99.90;;;;;;5069734;28;20506;-82
2023/09/08 09:10:43;;;;;;;7.22;5.93;;;25.30;99.90;;;;;;5069815;28;20102;-82
2023/09/08 09:13:09;;;;;;;6.68;5.80;;;25.40;99.90;;;;;;5068716;28;20044;-82
2023/09/08 09:15:34;;;;;;;9.23;5.95;;;25.40;99.90;;;;;;5085456;28;20135;-82
2023/09/08 09:18:05;;;;;;;6.05;5.55;;;25.50;99.90;;;;;;5084338;28;20041;-82
2023/09/08 09:20:31;;;;;;;8.80;5.88;;;25.70;99.90;;;;;;5076769;28;20498;-82
2023/09/08 09:22:57;;;;;;;6.05;5.28;;;25.80;99.90;;;;;;5090135;28;20101;-82
2023/09/08 09:25:24;;;;;;;6.68;5.50;;;25.90;99.90;;;;;;5085507;28;20048;-82
2023/09/08 09:27:59;;;;;;;7.90;5.43;;;26.00;99.90;;;;;;5069277;28;20423;-82
2023/09/08 09:30:25;;;;;;;5.30;4.80;;;26.00;99.90;;;;;;5069708;28;20053;-82
2023/09/08 09:33:04;;;;;;;5.85;5.22;;;26.10;99.90;;;;;;5076112;28;20085;-82
2023/09/08 09:35:47;;;;;;;5.70;5.10;;;26.30;99.90;;;;;;5089317;28;20075;-81
2023/09/08 09:38:14;;;;;;;6.28;5.75;;;26.40;98.10;;;;;;5088642;28;20059;-82
2023/09/08 09:40:40;;;;;;;7.15;5.63;;;26.40;99.00;;;;;;5089519;28;20545;-82
2023/09/08 09:43:07;;;;;;;6.05;5.43;;;26.60;98.60;;;;;;5085637;28;20128;-81
2023/09/08 09:45:33;;;;;;;7.55;5.65;;;26.50;98.20;;;;;;5083774;28;20043;-82
2023/09/08 09:47:59;;;;;;;6.07;5.35;;;26.60;98.00;;;;;;5088563;28;20051;-82
2023/09/08 09:50:43;;;;;;;6.63;5.97;;;26.70;98.10;;;;;;5068954;28;20122;-82
2023/09/08 09:53:16;;;;;;;6.20;5.18;;;26.70;97.50;;;;;;5068872;28;20448;-82
2023/09/08 09:55:43;;;;;;;6.10;5.10;;;26.80;97.60;;;;;;5075149;28;20049;-81
2023/09/08 09:58:10;;;;;;;8.90;5.97;;;26.70;97.50;;;;;;5076186;28;20430;-81
2023/09/08 10:00:37;;;;;;;6.50;5.53;;;26.90;97.40;;;;;;5086657;28;20056;-83
2023/09/08 10:03:04;;;;;;;5.93;4.97;;;26.90;97.40;;;;;;5087184;28;20048;-83
2023/09/08 10:05:29;;;;;;;5.38;4.97;;;27.00;97.40;;;;;;5078359;28;20033;-82
2023/09/08 10:07:56;;;;;;;7.40;6.05;;;27.10;96.90;;;;;;5074744;28;20389;-83
2023/09/08 10:10:22;;;;;;;5.82;5.15;;;27.10;96.50;;;;;;5068839;28;20084;-84
2023/09/08 10:12:56;;;;;;;7.45;5.55;;;27.30;96.70;;;;;;5068831;28;20090;-83
2023/09/08 10:15:24;;;;;;;7.78;5.57;;;27.40;95.90;;;;;;5077232;28;20052;-83
2023/09/08 10:17:55;;;;;;;8.52;5.70;;;27.40;95.50;;;;;;5071968;28;20045;-82
2023/09/08 10:20:23;;;;;;;13.38;5.53;;;27.40;95.20;;;;;;5085361;28;20140;-82
2023/09/08 10:22:54;;;;;;;5.80;4.82;;;27.50;94.90;;;;;;5088755;28;20039;-83
2023/09/08 10:25:21;;;;;;;5.63;5.13;;;27.50;95.00;;;;;;5088176;28;20998;-81
2023/09/08 10:27:47;;;;;;;5.40;4.90;;;27.60;94.70;;;;;;5074239;28;20041;-83
2023/09/08 10:30:14;;;;;;;7.30;5.20;;;27.70;93.90;;;;;;5086949;28;20036;-82
2023/09/08 10:32:41;;;;;;;7.35;5.18;;;27.80;93.60;;;;;;5080492;28;20048;-83
2023/09/08 10:35:08;;;;;;;5.75;5.10;;;27.90;93.20;;;;;;5071095;28;20045;-83
2023/09/08 10:37:33;;;;;;;5.78;5.28;;;27.90;93.00;;;;;;5067929;28;20052;-83
2023/09/08 10:40:21;;;;;;;5.93;4.95;;;27.90;92.90;;;;;;5068162;28;20056;-83
2023/09/08 10:42:47;;;;;;;5.35;4.95;;;28.00;92.60;;;;;;5068249;28;20047;-82
2023/09/08 10:45:18;;;;;;;5.75;4.95;;;28.00;92.60;;;;;;5069110;28;20379;-83
2023/09/08 10:47:46;;;;;;;6.07;4.60;;;28.00;92.00;;;;;;5067465;28;20040;-82
2023/09/08 10:50:19;;;;;;;6.63;4.43;;;28.20;91.90;;;;;;5080102;28;20051;-82
2023/09/08 10:53:17;;;;;;;6.55;4.82;;;28.30;91.60;;;;;;5067886;28;20051;-82
2023/09/08 10:55:47;;;;;;;6.00;4.60;;;28.40;91.10;;;;;;5068060;28;20044;-80
2023/09/08 10:58:35;;;;;;;4.55;4.15;;;28.50;90.60;;;;;;5067148;28;20044;-82
2023/09/08 11:01:01;;;;;;;4.90;4.40;;;28.50;90.30;;;;;;5067558;28;20047;-82
2023/09/08 11:03:43;;;;;;;6.15;4.50;;;28.60;90.10;;;;;;5073924;28;20055;-81
2023/09/08 11:06:09;;;;;;;8.20;4.50;;;28.70;86.70;;;;;;5085401;28;20044;-82
2023/09/08 11:08:38;;;;;;;7.03;4.53;;;28.70;85.30;;;;;;5073850;28;20568;-81
2023/09/08 11:11:04;;;;;;;5.05;4.55;;;28.70;85.00;;;;;;5066458;28;20042;-82
2023/09/08 11:13:30;;;;;;;6.57;4.35;;;28.60;83.40;;;;;;5066648;28;20049;-82
2023/09/08 11:15:56;;;;;;;4.97;4.10;;;28.70;82.60;;;;;;5084273;28;20048;-81
2023/09/08 11:18:33;;;;;;;5.68;4.60;;;28.80;82.20;;;;;;5085679;28;20070;-81
2023/09/08 11:21:00;;;;;;;4.60;4.20;;;28.90;81.60;;;;;;5075653;28;20044;-81
2023/09/08 11:23:26;;;;;;;8.20;4.40;;;29.00;80.80;;;;;;5067368;28;20033;-81
2023/09/08 11:25:52;;;;;;;6.00;4.25;;;29.00;80.40;;;;;;5083165;28;20455;-81
2023/09/08 11:28:21;;;;;;;5.95;3.97;;;29.00;79.30;;;;;;5076562;28;20074;-80
2023/09/08 11:30:48;;;;;;;4.82;4.10;;;29.10;79.30;;;;;;5073343;28;20509;-81
2023/09/08 11:33:19;;;;;;;4.20;3.60;;;29.10;77.70;;;;;;5066413;28;20040;-81
2023/09/08 11:35:48;;;;;;;4.47;4.07;;;29.10;76.20;;;;;;5066268;28;20041;-80
2023/09/08 11:38:13;;;;;;;4.70;4.20;;;29.20;75.20;;;;;;5065915;28;20055;-80
2023/09/08 11:40:40;;;;;;;4.80;4.18;;;29.20;74.10;;;;;;5066541;28;20041;-81
2023/09/08 11:43:06;;;;;;;6.15;4.18;;;29.20;73.10;;;;;;5064825;28;20095;-81
2023/09/08 11:45:36;;;;;;;4.07;3.78;;;29.30;71.80;;;;;;5081995;28;20055;-80
2023/09/08 11:48:02;;;;;;;4.95;4.22;;;29.40;71.30;;;;;;5065431;28;20582;-80
2023/09/08 11:50:30;;;;;;;4.20;3.80;;;29.40;72.00;;;;;;5065839;28;20048;-81
2023/09/08 11:52:58;;;;;;;4.32;3.90;;;29.40;71.40;;;;;;5064517;28;20049;-80
2023/09/08 11:55:25;;;;;;;3.95;3.65;;;29.30;71.60;;;;;;5065992;28;20466;-81
2023/09/08 11:58:00;;;;;;;6.07;4.28;;;29.40;73.00;;;;;;5066113;28;20120;-81
2023/09/08 12:00:27;;;;;;;4.10;3.80;;;29.50;70.80;;;;;;5069490;28;20048;-80
2023/09/08 12:02:54;;;;;;;4.95;4.00;;;29.40;70.90;;;;;;5075367;28;20075;-80
2023/09/08 12:05:25;;;;;;;4.40;3.78;;;29.40;69.30;;;;;;5083146;28;20092;-80
2023/09/08 12:07:52;;;;;;;4.32;3.92;;;29.40;69.40;;;;;;5070693;28;20119;-80
2023/09/08 12:10:18;;;;;;;5.18;4.10;;;29.40;70.20;;;;;;5071076;28;20036;-80
2023/09/08 12:12:55;;;;;;;5.72;4.25;;;29.50;70.50;;;;;;5070690;28;20048;-80
2023/09/08 12:15:40;;;;;;;4.75;4.07;;;29.50;70.80;;;;;;5070600;28;20475;-79
2023/09/08 12:18:11;;;;;;;4.97;3.75;;;29.50;68.80;;;;;;5069219;28;20552;-82
2023/09/08 12:20:38;;;;;;;4.82;4.10;;;29.50;70.10;;;;;;5069448;28;20109;-80
2023/09/08 12:23:17;;;;;;;6.13;4.20;;;29.50;70.10;;;;;;5069174;28;20056;-81
2023/09/08 12:25:50;;;;;;;4.38;3.97;;;29.50;69.30;;;;;;5070714;28;20044;-80
2023/09/08 12:28:18;;;;;;;7.57;4.50;;;29.50;68.90;;;;;;5082547;28;20047;-80
2023/09/08 12:30:44;;;;;;;6.80;4.43;;;29.60;69.50;;;;;;5072021;28;20048;-80
2023/09/08 12:33:10;;;;;;;5.28;3.95;;;29.60;69.70;;;;;;5069879;28;20052;-80
2023/09/08 12:35:36;;;;;;;5.65;4.15;;;29.60;69.00;;;;;;5086252;28;20044;-80
2023/09/08 12:38:04;;;;;;;5.47;4.07;;;29.70;69.60;;;;;;5071274;28;20048;-80
2023/09/08 12:40:31;;;;;;;4.80;4.30;;;29.70;68.00;;;;;;5070127;28;20086;-79